sensor_id;sensor_type;location;lat;lon;timestamp;pressure;altitude;pressure_sealevel;temperature;humidity
4814;BME280;15375;48.540;9.268;2023-03-14T00:02:01;95809.25;;;9.88;100.00
4814;BME280;15375;48.540;9.268;2023-03-14T00:04:26;95804.69;;;9.85;100.00
4814;BME280;15375;48.540;9.268;2023-03-14T00:06:52;95832.16;;;9.99;100.00
4814;BME280;15375;48.540;9.268;2023-03-14T00:09:17;95771.72;;;9.74;100.00
4814;BME280;15375;48.540;9.268;2023-03-14T00:11:43;95782.06;;;9.97;100.00
4814;BME280;15375;48.540;9.268;2023-03-14T00:14:08;95732.25;;;9.87;100.00
4814;BME280;15375;48.540;9.268;2023-03-14T00:16:34;95730.34;;;10.15;100.00
4814;BME280;15375;48.540;9.268;2023-03-14T00:18:59;95671.00;;;9.92;100.00
4814;BME280;15375;48.540;9.268;2023-03-14T00:21:25;95686.88;;;10.02;100.00
4814;BME280;15375;48.540;9.268;2023-03-14T00:23:51;95705.22;;;10.20;100.00
4814;BME280;15375;48.540;9.268;2023-03-14T00:26:18;95716.88;;;10.11;100.00
4814;BME280;15375;48.540;9.268;2023-03-14T00:28:44;95693.13;;;10.12;100.00
4814;BME280;15375;48.540;9.268;2023-03-14T00:31:12;95679.34;;;10.15;100.00
4814;BME280;15375;48.540;9.268;2023-03-14T00:33:38;95664.34;;;10.02;100.00
4814;BME280;15375;48.540;9.268;2023-03-14T00:36:06;95676.44;;;10.01;100.00
4814;BME280;15375;48.540;9.268;2023-03-14T00:38:34;95653.28;;;9.78;100.00
4814;BME280;15375;48.540;9.268;2023-03-14T00:41:03;95690.66;;;10.05;100.00
4814;BME280;15375;48.540;9.268;2023-03-14T00:43:29;95675.38;;;9.98;100.00
4814;BME280;15375;48.540;9.268;2023-03-14T00:45:54;95686.59;;;10.09;100.00
4814;BME280;15375;48.540;9.268;2023-03-14T00:48:20;95677.19;;;9.83;100.00
4814;BME280;15375;48.540;9.268;2023-03-14T00:50:46;95706.09;;;9.90;100.00
4814;BME280;15375;48.540;9.268;2023-03-14T00:53:12;95707.91;;;9.84;100.00
4814;BME280;15375;48.540;9.268;2023-03-14T00:55:38;95734.66;;;9.85;100.00
4814;BME280;15375;48.540;9.268;2023-03-14T00:58:04;95728.44;;;9.76;100.00
4814;BME280;15375;48.540;9.268;2023-03-14T01:00:29;95744.06;;;9.84;100.00
4814;BME280;15375;48.540;9.268;2023-03-14T01:02:54;95762.19;;;9.87;100.00
4814;BME280;15375;48.540;9.268;2023-03-14T01:05:21;95760.66;;;9.77;100.00
4814;BME280;15375;48.540;9.268;2023-03-14T01:07:47;95760.81;;;9.74;100.00
4814;BME280;15375;48.540;9.268;2023-03-14T01:10:12;95746.09;;;9.62;100.00
4814;BME280;15375;48.540;9.268;2023-03-14T01:12:38;95749.72;;;9.59;100.00
4814;BME280;15375;48.540;9.268;2023-03-14T01:15:03;95751.69;;;9.58;100.00
4814;BME280;15375;48.540;9.268;2023-03-14T01:17:29;95748.63;;;9.47;100.00
4814;BME280;15375;48.540;9.268;2023-03-14T01:19:54;95711.53;;;9.32;100.00
4814;BME280;15375;48.540;9.268;2023-03-14T01:22:20;95744.31;;;9.68;100.00
4814;BME280;15375;48.540;9.268;2023-03-14T01:24:46;95718.44;;;9.63;100.00
4814;BME280;15375;48.540;9.268;2023-03-14T01:27:12;95698.47;;;9.57;100.00
4814;BME280;15375;48.540;9.268;2023-03-14T01:29:38;95699.41;;;9.63;100.00
4814;BME280;15375;48.540;9.268;2023-03-14T01:32:03;95726.03;;;9.78;100.00
4814;BME280;15375;48.540;9.268;2023-03-14T01:34:29;95709.06;;;9.64;100.00
4814;BME280;15375;48.540;9.268;2023-03-14T01:36:54;95697.88;;;9.62;100.00
4814;BME280;15375;48.540;9.268;2023-03-14T01:39:20;95716.38;;;9.77;100.00
4814;BME280;15375;48.540;9.268;2023-03-14T01:41:45;95701.34;;;9.72;100.00
4814;BME280;15375;48.540;9.268;2023-03-14T01:44:12;95690.94;;;9.71;100.00
4814;BME280;15375;48.540;9.268;2023-03-14T01:46:42;95685.78;;;9.63;100.00
4814;BME280;15375;48.540;9.268;2023-03-14T01:49:29;95708.78;;;9.81;100.00
4814;BME280;15375;48.540;9.268;2023-03-14T01:52:00;95705.00;;;9.78;100.00
4814;BME280;15375;48.540;9.268;2023-03-14T01:59:30;95682.59;;;9.65;100.00
4814;BME280;15375;48.540;9.268;2023-03-14T02:01:57;95679.16;;;9.74;100.00
4814;BME280;15375;48.540;9.268;2023-03-14T02:04:23;95661.00;;;9.61;100.00
4814;BME280;15375;48.540;9.268;2023-03-14T02:06:51;95660.06;;;9.55;100.00
4814;BME280;15375;48.540;9.268;2023-03-14T02:09:18;95690.34;;;9.67;100.00
4814;BME280;15375;48.540;9.268;2023-03-14T02:11:44;95653.97;;;9.42;100.00
4814;BME280;15375;48.540;9.268;2023-03-14T02:14:16;95672.72;;;9.49;100.00
4814;BME280;15375;48.540;9.268;2023-03-14T02:16:44;95674.53;;;9.43;100.00
4814;BME280;15375;48.540;9.268;2023-03-14T02:19:10;95664.25;;;9.47;100.00
4814;BME280;15375;48.540;9.268;2023-03-14T02:21:57;95660.06;;;9.64;100.00
4814;BME280;15375;48.540;9.268;2023-03-14T02:24:43;95657.97;;;9.69;100.00
4814;BME280;15375;48.540;9.268;2023-03-14T02:27:17;95649.63;;;9.72;100.00
4814;BME280;15375;48.540;9.268;2023-03-14T02:29:53;95647.69;;;9.73;100.00
4814;BME280;15375;48.540;9.268;2023-03-14T02:32:21;95641.34;;;9.67;100.00
4814;BME280;15375;48.540;9.268;2023-03-14T02:34:52;95651.63;;;9.72;100.00
4814;BME280;15375;48.540;9.268;2023-03-14T02:37:21;95655.53;;;9.61;100.00
4814;BME280;15375;48.540;9.268;2023-03-14T02:39:48;95638.75;;;9.63;100.00
4814;BME280;15375;48.540;9.268;2023-03-14T02:42:15;95650.25;;;9.85;100.00
4814;BME280;15375;48.540;9.268;2023-03-14T02:44:55;95642.41;;;9.96;100.00
4814;BME280;15375;48.540;9.268;2023-03-14T02:47:29;95655.72;;;10.03;100.00
4814;BME280;15375;48.540;9.268;2023-03-14T02:50:01;95637.41;;;10.04;100.00
4814;BME280;15375;48.540;9.268;2023-03-14T02:52:27;95634.06;;;10.00;100.00
4814;BME280;15375;48.540;9.268;2023-03-14T02:54:53;95617.28;;;9.92;100.00
4814;BME280;15375;48.540;9.268;2023-03-14T02:57:18;95607.31;;;9.98;100.00
4814;BME280;15375;48.540;9.268;2023-03-14T02:59:44;95589.16;;;9.95;100.00
4814;BME280;15375;48.540;9.268;2023-03-14T03:02:09;95614.25;;;10.08;100.00
4814;BME280;15375;48.540;9.268;2023-03-14T03:04:34;95619.41;;;10.06;100.00
4814;BME280;15375;48.540;9.268;2023-03-14T03:07:00;95597.34;;;9.86;100.00
4814;BME280;15375;48.540;9.268;2023-03-14T03:09:25;95600.38;;;9.79;100.00
4814;BME280;15375;48.540;9.268;2023-03-14T03:11:50;95593.72;;;9.89;100.00
4814;BME280;15375;48.540;9.268;2023-03-14T03:14:16;95597.47;;;10.01;100.00
4814;BME280;15375;48.540;9.268;2023-03-14T03:16:41;95578.28;;;9.86;100.00
4814;BME280;15375;48.540;9.268;2023-03-14T03:19:06;95555.91;;;9.64;100.00
4814;BME280;15375;48.540;9.268;2023-03-14T03:21:32;95592.31;;;9.85;100.00
4814;BME280;15375;48.540;9.268;2023-03-14T03:23:57;95566.78;;;9.73;100.00
4814;BME280;15375;48.540;9.268;2023-03-14T03:26:23;95575.69;;;9.74;100.00
4814;BME280;15375;48.540;9.268;2023-03-14T03:28:51;95579.31;;;9.98;100.00
4814;BME280;15375;48.540;9.268;2023-03-14T03:31:16;95558.44;;;9.95;100.00
4814;BME280;15375;48.540;9.268;2023-03-14T03:33:45;95562.69;;;9.87;100.00
4814;BME280;15375;48.540;9.268;2023-03-14T03:36:10;95553.16;;;9.91;100.00
4814;BME280;15375;48.540;9.268;2023-03-14T03:38:36;95535.16;;;9.76;100.00
4814;BME280;15375;48.540;9.268;2023-03-14T03:41:05;95565.09;;;9.94;100.00
4814;BME280;15375;48.540;9.268;2023-03-14T03:43:31;95544.25;;;9.82;100.00
4814;BME280;15375;48.540;9.268;2023-03-14T03:45:57;95536.38;;;9.75;100.00
4814;BME280;15375;48.540;9.268;2023-03-14T03:48:22;95536.69;;;9.77;100.00
4814;BME280;15375;48.540;9.268;2023-03-14T03:50:48;95540.03;;;9.72;100.00
4814;BME280;15375;48.540;9.268;2023-03-14T03:53:13;95543.03;;;9.74;100.00
4814;BME280;15375;48.540;9.268;2023-03-14T03:55:41;95522.31;;;9.58;100.00
4814;BME280;15375;48.540;9.268;2023-03-14T03:58:07;95535.63;;;9.56;100.00
4814;BME280;15375;48.540;9.268;2023-03-14T04:00:33;95550.47;;;9.64;100.00
4814;BME280;15375;48.540;9.268;2023-03-14T04:02:58;95538.50;;;9.61;100.00
4814;BME280;15375;48.540;9.268;2023-03-14T04:05:24;95546.81;;;9.58;100.00
4814;BME280;15375;48.540;9.268;2023-03-14T04:07:50;95532.91;;;9.38;100.00
4814;BME280;15375;48.540;9.268;2023-03-14T04:10:15;95542.13;;;9.49;100.00
4814;BME280;15375;48.540;9.268;2023-03-14T04:12:40;95524.28;;;9.39;100.00
4814;BME280;15375;48.540;9.268;2023-03-14T04:15:07;95549.38;;;9.52;100.00
4814;BME280;15375;48.540;9.268;2023-03-14T04:17:32;95511.88;;;9.29;100.00
4814;BME280;15375;48.540;9.268;2023-03-14T04:19:57;95530.78;;;9.42;100.00
4814;BME280;15375;48.540;9.268;2023-03-14T04:22:23;95526.41;;;9.26;100.00
4814;BME280;15375;48.540;9.268;2023-03-14T04:24:48;95547.41;;;9.53;100.00
4814;BME280;15375;48.540;9.268;2023-03-14T04:27:14;95512.03;;;9.35;99.63
4814;BME280;15375;48.540;9.268;2023-03-14T04:29:40;95522.34;;;9.49;98.36
4814;BME280;15375;48.540;9.268;2023-03-14T04:32:05;95528.97;;;9.66;96.29
4814;BME280;15375;48.540;9.268;2023-03-14T04:34:31;95535.47;;;9.69;96.85
4814;BME280;15375;48.540;9.268;2023-03-14T04:36:56;95509.75;;;9.70;92.24
4814;BME280;15375;48.540;9.268;2023-03-14T04:39:21;95490.41;;;9.49;94.40
4814;BME280;15375;48.540;9.268;2023-03-14T04:41:47;95495.25;;;9.63;91.20
4814;BME280;15375;48.540;9.268;2023-03-14T04:44:12;95499.63;;;9.79;89.86
4814;BME280;15375;48.540;9.268;2023-03-14T04:46:37;95458.22;;;9.48;90.23
4814;BME280;15375;48.540;9.268;2023-03-14T04:49:03;95464.25;;;9.70;87.16
4814;BME280;15375;48.540;9.268;2023-03-14T04:51:28;95458.66;;;9.64;88.15
4814;BME280;15375;48.540;9.268;2023-03-14T04:53:54;95439.34;;;9.53;87.35
4814;BME280;15375;48.540;9.268;2023-03-14T04:56:20;95420.75;;;9.43;86.63
4814;BME280;15375;48.540;9.268;2023-03-14T04:58:45;95459.09;;;9.72;86.46
4814;BME280;15375;48.540;9.268;2023-03-14T05:01:11;95455.94;;;9.74;86.19
4814;BME280;15375;48.540;9.268;2023-03-14T05:03:36;95470.25;;;9.92;84.24
4814;BME280;15375;48.540;9.268;2023-03-14T05:06:03;95453.50;;;9.76;84.17
4814;BME280;15375;48.540;9.268;2023-03-14T05:08:29;95452.56;;;9.97;83.01
4814;BME280;15375;48.540;9.268;2023-03-14T05:10:55;95467.53;;;9.92;84.11
4814;BME280;15375;48.540;9.268;2023-03-14T05:13:21;95446.69;;;9.80;84.71
4814;BME280;15375;48.540;9.268;2023-03-14T05:15:47;95437.19;;;9.67;84.61
4814;BME280;15375;48.540;9.268;2023-03-14T05:18:12;95433.25;;;9.77;84.19
4814;BME280;15375;48.540;9.268;2023-03-14T05:20:37;95420.84;;;9.76;84.35
4814;BME280;15375;48.540;9.268;2023-03-14T05:23:03;95429.91;;;9.82;84.61
4814;BME280;15375;48.540;9.268;2023-03-14T05:25:28;95430.81;;;9.79;84.60
4814;BME280;15375;48.540;9.268;2023-03-14T05:27:55;95408.44;;;9.75;85.24
4814;BME280;15375;48.540;9.268;2023-03-14T05:30:21;95424.28;;;9.85;83.98
4814;BME280;15375;48.540;9.268;2023-03-14T05:32:47;95416.72;;;9.80;84.27
4814;BME280;15375;48.540;9.268;2023-03-14T05:35:13;95421.13;;;9.78;85.19
4814;BME280;15375;48.540;9.268;2023-03-14T05:37:38;95423.84;;;9.87;84.66
4814;BME280;15375;48.540;9.268;2023-03-14T05:40:05;95423.84;;;9.78;85.12
4814;BME280;15375;48.540;9.268;2023-03-14T05:42:32;95414.16;;;9.86;83.78
4814;BME280;15375;48.540;9.268;2023-03-14T05:44:57;95411.56;;;9.82;83.76
4814;BME280;15375;48.540;9.268;2023-03-14T05:47:23;95398.41;;;9.90;82.42
4814;BME280;15375;48.540;9.268;2023-03-14T05:49:48;95411.38;;;9.95;83.51
4814;BME280;15375;48.540;9.268;2023-03-14T05:52:14;95412.78;;;9.90;83.98
4814;BME280;15375;48.540;9.268;2023-03-14T05:54:39;95408.38;;;9.93;82.95
4814;BME280;15375;48.540;9.268;2023-03-14T05:57:05;95401.88;;;9.99;81.84
4814;BME280;15375;48.540;9.268;2023-03-14T05:59:31;95371.00;;;9.93;80.93
4814;BME280;15375;48.540;9.268;2023-03-14T06:01:56;95387.72;;;10.10;81.34
4814;BME280;15375;48.540;9.268;2023-03-14T06:04:22;95389.94;;;9.97;82.33
4814;BME280;15375;48.540;9.268;2023-03-14T06:06:47;95397.34;;;9.96;82.52
4814;BME280;15375;48.540;9.268;2023-03-14T06:09:12;95355.63;;;9.81;80.72
4814;BME280;15375;48.540;9.268;2023-03-14T06:11:38;95359.06;;;9.91;81.58
4814;BME280;15375;48.540;9.268;2023-03-14T06:14:03;95390.63;;;10.06;81.69
4814;BME280;15375;48.540;9.268;2023-03-14T06:16:29;95359.41;;;9.84;80.59
4814;BME280;15375;48.540;9.268;2023-03-14T06:18:54;95366.34;;;9.85;81.25
4814;BME280;15375;48.540;9.268;2023-03-14T06:21:19;95391.69;;;10.00;81.48
4814;BME280;15375;48.540;9.268;2023-03-14T06:23:45;95397.00;;;10.03;80.91
4814;BME280;15375;48.540;9.268;2023-03-14T06:26:11;95383.28;;;9.89;81.53
4814;BME280;15375;48.540;9.268;2023-03-14T06:28:37;95401.53;;;10.06;82.09
4814;BME280;15375;48.540;9.268;2023-03-14T06:31:03;95398.25;;;9.93;82.82
4814;BME280;15375;48.540;9.268;2023-03-14T06:33:28;95415.44;;;10.08;82.99
4814;BME280;15375;48.540;9.268;2023-03-14T06:35:54;95413.00;;;10.10;82.85
4814;BME280;15375;48.540;9.268;2023-03-14T06:38:19;95386.59;;;9.93;81.91
4814;BME280;15375;48.540;9.268;2023-03-14T06:40:45;95405.16;;;10.03;82.36
4814;BME280;15375;48.540;9.268;2023-03-14T06:43:10;95398.34;;;10.08;81.89
4814;BME280;15375;48.540;9.268;2023-03-14T06:45:36;95396.25;;;10.12;81.98
4814;BME280;15375;48.540;9.268;2023-03-14T06:48:01;95403.94;;;10.13;82.93
4814;BME280;15375;48.540;9.268;2023-03-14T06:50:26;95386.88;;;9.95;82.28
4814;BME280;15375;48.540;9.268;2023-03-14T06:52:52;95394.25;;;10.12;82.69
4814;BME280;15375;48.540;9.268;2023-03-14T06:55:17;95387.28;;;10.11;81.35
4814;BME280;15375;48.540;9.268;2023-03-14T06:57:43;95379.13;;;10.02;81.72
4814;BME280;15375;48.540;9.268;2023-03-14T07:00:10;95407.25;;;10.17;82.73
4814;BME280;15375;48.540;9.268;2023-03-14T07:02:35;95388.97;;;10.09;82.07
4814;BME280;15375;48.540;9.268;2023-03-14T07:05:01;95400.16;;;10.44;81.28
4814;BME280;15375;48.540;9.268;2023-03-14T07:07:28;95379.75;;;10.63;79.35
4814;BME280;15375;48.540;9.268;2023-03-14T07:09:54;95410.66;;;10.83;79.07
4814;BME280;15375;48.540;9.268;2023-03-14T07:12:19;95388.63;;;10.72;78.29
4814;BME280;15375;48.540;9.268;2023-03-14T07:14:44;95390.78;;;10.68;78.41
4814;BME280;15375;48.540;9.268;2023-03-14T07:17:10;95415.00;;;10.90;77.53
4814;BME280;15375;48.540;9.268;2023-03-14T07:19:35;95434.81;;;11.00;77.47
4814;BME280;15375;48.540;9.268;2023-03-14T07:22:01;95413.03;;;10.90;77.77
4814;BME280;15375;48.540;9.268;2023-03-14T07:24:26;95410.91;;;10.95;79.28
4814;BME280;15375;48.540;9.268;2023-03-14T07:26:52;95413.97;;;10.87;79.02
4814;BME280;15375;48.540;9.268;2023-03-14T07:29:17;95450.69;;;11.25;80.04
4814;BME280;15375;48.540;9.268;2023-03-14T07:31:42;95453.59;;;11.36;77.36
4814;BME280;15375;48.540;9.268;2023-03-14T07:34:08;95414.84;;;11.32;74.40
4814;BME280;15375;48.540;9.268;2023-03-14T07:36:33;95427.09;;;11.66;72.80
4814;BME280;15375;48.540;9.268;2023-03-14T07:38:59;95441.19;;;12.02;69.93
4814;BME280;15375;48.540;9.268;2023-03-14T07:41:24;95424.41;;;12.44;69.52
4814;BME280;15375;48.540;9.268;2023-03-14T07:43:50;95444.31;;;12.79;66.93
4814;BME280;15375;48.540;9.268;2023-03-14T07:46:15;95449.44;;;12.72;67.64
4814;BME280;15375;48.540;9.268;2023-03-14T07:48:41;95447.53;;;12.78;67.20
4814;BME280;15375;48.540;9.268;2023-03-14T07:51:06;95440.78;;;12.09;69.41
4814;BME280;15375;48.540;9.268;2023-03-14T07:53:32;95453.13;;;12.20;69.21
4814;BME280;15375;48.540;9.268;2023-03-14T07:55:57;95463.88;;;12.23;70.12
4814;BME280;15375;48.540;9.268;2023-03-14T07:58:22;95460.47;;;12.13;70.77
4814;BME280;15375;48.540;9.268;2023-03-14T08:00:48;95463.78;;;12.03;70.89
4814;BME280;15375;48.540;9.268;2023-03-14T08:03:14;95475.28;;;12.07;70.57
4814;BME280;15375;48.540;9.268;2023-03-14T08:05:39;95472.53;;;12.22;70.25
4814;BME280;15375;48.540;9.268;2023-03-14T08:08:06;95438.88;;;12.65;69.42
4814;BME280;15375;48.540;9.268;2023-03-14T08:10:31;95447.19;;;12.70;67.09
4814;BME280;15375;48.540;9.268;2023-03-14T08:12:58;95462.72;;;12.99;67.31
4814;BME280;15375;48.540;9.268;2023-03-14T08:15:25;95467.38;;;12.93;66.09
4814;BME280;15375;48.540;9.268;2023-03-14T08:17:50;95473.59;;;13.08;66.52
4814;BME280;15375;48.540;9.268;2023-03-14T08:20:17;95465.72;;;13.36;66.19
4814;BME280;15375;48.540;9.268;2023-03-14T08:22:43;95457.69;;;13.32;67.07
4814;BME280;15375;48.540;9.268;2023-03-14T08:25:08;95449.16;;;12.70;66.70
4814;BME280;15375;48.540;9.268;2023-03-14T08:27:34;95450.09;;;12.32;66.93
4814;BME280;15375;48.540;9.268;2023-03-14T08:29:59;95458.75;;;12.45;68.22
4814;BME280;15375;48.540;9.268;2023-03-14T08:32:24;95431.00;;;12.18;68.44
4814;BME280;15375;48.540;9.268;2023-03-14T08:34:50;95460.66;;;12.25;69.42
4814;BME280;15375;48.540;9.268;2023-03-14T08:37:15;95468.94;;;12.30;70.14
4814;BME280;15375;48.540;9.268;2023-03-14T08:39:40;95466.88;;;12.25;69.74
4814;BME280;15375;48.540;9.268;2023-03-14T08:42:06;95459.44;;;12.26;69.83
4814;BME280;15375;48.540;9.268;2023-03-14T08:44:31;95466.81;;;12.54;68.61
4814;BME280;15375;48.540;9.268;2023-03-14T08:46:57;95446.06;;;12.62;68.10
4814;BME280;15375;48.540;9.268;2023-03-14T08:49:22;95452.13;;;12.52;67.09
4814;BME280;15375;48.540;9.268;2023-03-14T08:51:47;95447.59;;;12.63;66.35
4814;BME280;15375;48.540;9.268;2023-03-14T08:54:13;95447.69;;;13.09;65.09
4814;BME280;15375;48.540;9.268;2023-03-14T08:56:38;95458.72;;;13.81;63.35
4814;BME280;15375;48.540;9.268;2023-03-14T08:59:04;95432.72;;;13.96;61.55
4814;BME280;15375;48.540;9.268;2023-03-14T09:01:30;95460.38;;;14.55;62.04
4814;BME280;15375;48.540;9.268;2023-03-14T09:03:56;95456.22;;;14.34;60.94
4814;BME280;15375;48.540;9.268;2023-03-14T09:06:21;95451.59;;;14.20;61.72
4814;BME280;15375;48.540;9.268;2023-03-14T09:08:47;95460.44;;;14.04;62.56
4814;BME280;15375;48.540;9.268;2023-03-14T09:11:13;95469.44;;;14.67;61.76
4814;BME280;15375;48.540;9.268;2023-03-14T09:13:38;95449.47;;;14.66;60.48
4814;BME280;15375;48.540;9.268;2023-03-14T09:16:05;95479.44;;;14.76;62.08
4814;BME280;15375;48.540;9.268;2023-03-14T09:18:31;95449.69;;;14.63;62.24
4814;BME280;15375;48.540;9.268;2023-03-14T09:20:56;95458.72;;;14.06;64.74
4814;BME280;15375;48.540;9.268;2023-03-14T09:23:22;95487.28;;;14.00;66.22
4814;BME280;15375;48.540;9.268;2023-03-14T09:25:47;95497.47;;;13.48;70.85
4814;BME280;15375;48.540;9.268;2023-03-14T09:28:12;95521.50;;;13.04;74.04
4814;BME280;15375;48.540;9.268;2023-03-14T09:30:38;95510.66;;;12.60;75.48
4814;BME280;15375;48.540;9.268;2023-03-14T09:33:04;95495.47;;;12.59;76.58
4814;BME280;15375;48.540;9.268;2023-03-14T09:35:29;95522.53;;;12.57;78.49
4814;BME280;15375;48.540;9.268;2023-03-14T09:37:54;95526.88;;;12.63;79.42
4814;BME280;15375;48.540;9.268;2023-03-14T09:40:21;95497.22;;;12.27;79.79
4814;BME280;15375;48.540;9.268;2023-03-14T09:42:51;95545.16;;;12.72;81.20
4814;BME280;15375;48.540;9.268;2023-03-14T09:47:48;95540.63;;;12.69;84.69
4814;BME280;15375;48.540;9.268;2023-03-14T09:50:14;95516.53;;;12.24;84.05
4814;BME280;15375;48.540;9.268;2023-03-14T09:52:42;95555.63;;;12.73;82.41
4814;BME280;15375;48.540;9.268;2023-03-14T09:55:16;95496.47;;;12.27;83.03
4814;BME280;15375;48.540;9.268;2023-03-14T09:57:43;95551.81;;;12.51;81.50
4814;BME280;15375;48.540;9.268;2023-03-14T10:00:16;95544.72;;;12.00;81.14
4814;BME280;15375;48.540;9.268;2023-03-14T10:02:47;95555.81;;;11.82;82.72
4814;BME280;15375;48.540;9.268;2023-03-14T10:05:17;95537.84;;;11.67;82.98
4814;BME280;15375;48.540;9.268;2023-03-14T10:07:43;95525.81;;;11.35;82.53
4814;BME280;15375;48.540;9.268;2023-03-14T10:10:18;95565.00;;;11.70;84.45
4814;BME280;15375;48.540;9.268;2023-03-14T10:12:46;95537.41;;;11.44;82.89
4814;BME280;15375;48.540;9.268;2023-03-14T10:15:13;95543.81;;;11.56;83.71
4814;BME280;15375;48.540;9.268;2023-03-14T10:17:50;95531.63;;;11.66;83.19
4814;BME280;15375;48.540;9.268;2023-03-14T10:20:36;95542.50;;;11.75;82.91
4814;BME280;15375;48.540;9.268;2023-03-14T10:23:26;95541.91;;;11.71;82.59
4814;BME280;15375;48.540;9.268;2023-03-14T10:26:00;95540.19;;;11.97;82.47
4814;BME280;15375;48.540;9.268;2023-03-14T10:28:30;95535.66;;;12.09;81.86
4814;BME280;15375;48.540;9.268;2023-03-14T10:30:56;95528.72;;;12.08;80.88
4814;BME280;15375;48.540;9.268;2023-03-14T10:33:31;95519.84;;;12.28;79.12
4814;BME280;15375;48.540;9.268;2023-03-14T10:36:03;95518.81;;;12.25;79.02
4814;BME280;15375;48.540;9.268;2023-03-14T10:38:35;95523.25;;;12.08;77.69
4814;BME280;15375;48.540;9.268;2023-03-14T10:41:01;95528.88;;;12.19;76.93
4814;BME280;15375;48.540;9.268;2023-03-14T10:43:32;95512.09;;;12.26;76.84
4814;BME280;15375;48.540;9.268;2023-03-14T10:46:02;95505.31;;;12.22;77.22
4814;BME280;15375;48.540;9.268;2023-03-14T10:48:34;95523.91;;;12.32;75.62
4814;BME280;15375;48.540;9.268;2023-03-14T10:53:44;95527.94;;;12.37;76.51
4814;BME280;15375;48.540;9.268;2023-03-14T10:56:15;95520.50;;;12.23;74.30
4814;BME280;15375;48.540;9.268;2023-03-14T10:58:45;95512.88;;;12.27;75.21
4814;BME280;15375;48.540;9.268;2023-03-14T11:07:28;95535.31;;;12.31;79.29
4814;BME280;15375;48.540;9.268;2023-03-14T11:12:41;95512.28;;;11.93;85.25
4814;BME280;15375;48.540;9.268;2023-03-14T11:20:52;95577.22;;;11.51;94.35
4814;BME280;15375;48.540;9.268;2023-03-14T11:29:08;95587.44;;;10.85;100.00
4814;BME280;15375;48.540;9.268;2023-03-14T11:31:38;95583.38;;;10.80;100.00
4814;BME280;15375;48.540;9.268;2023-03-14T11:34:10;95594.88;;;10.84;100.00
4814;BME280;15375;48.540;9.268;2023-03-14T11:36:52;95579.88;;;10.80;100.00
4814;BME280;15375;48.540;9.268;2023-03-14T11:39:20;95598.59;;;10.63;100.00
4814;BME280;15375;48.540;9.268;2023-03-14T11:41:49;95605.06;;;10.75;100.00
4814;BME280;15375;48.540;9.268;2023-03-14T11:44:20;95608.63;;;10.48;100.00
4814;BME280;15375;48.540;9.268;2023-03-14T11:46:57;95609.28;;;10.34;100.00
4814;BME280;15375;48.540;9.268;2023-03-14T11:52:03;95575.22;;;10.02;100.00
4814;BME280;15375;48.540;9.268;2023-03-14T11:54:48;95596.88;;;10.15;100.00
4814;BME280;15375;48.540;9.268;2023-03-14T11:57:19;95591.41;;;10.15;100.00
4814;BME280;15375;48.540;9.268;2023-03-14T12:00:05;95622.28;;;10.30;100.00
4814;BME280;15375;48.540;9.268;2023-03-14T12:02:55;95595.03;;;10.30;100.00
4814;BME280;15375;48.540;9.268;2023-03-14T12:13:55;95635.25;;;10.53;100.00
4814;BME280;15375;48.540;9.268;2023-03-14T12:18:50;95640.25;;;10.55;100.00
4814;BME280;15375;48.540;9.268;2023-03-14T12:21:16;95664.63;;;10.58;100.00
4814;BME280;15375;48.540;9.268;2023-03-14T12:23:49;95660.41;;;10.48;100.00
4814;BME280;15375;48.540;9.268;2023-03-14T12:26:21;95676.47;;;10.37;100.00
4814;BME280;15375;48.540;9.268;2023-03-14T12:28:52;95689.03;;;10.25;100.00
4814;BME280;15375;48.540;9.268;2023-03-14T12:31:42;95693.69;;;9.98;100.00
4814;BME280;15375;48.540;9.268;2023-03-14T12:47:00;95726.03;;;9.78;98.38
4814;BME280;15375;48.540;9.268;2023-03-14T12:49:30;95724.84;;;9.88;96.39
4814;BME280;15375;48.540;9.268;2023-03-14T12:52:00;95757.72;;;10.11;95.79
4814;BME280;15375;48.540;9.268;2023-03-14T12:54:34;95769.72;;;10.23;94.00
4814;BME280;15375;48.540;9.268;2023-03-14T12:57:28;95766.38;;;10.37;92.03
4814;BME280;15375;48.540;9.268;2023-03-14T13:00:00;95777.59;;;10.57;90.50
4814;BME280;15375;48.540;9.268;2023-03-14T13:02:29;95779.09;;;10.40;87.34
4814;BME280;15375;48.540;9.268;2023-03-14T13:05:05;95788.19;;;10.55;80.92
4814;BME280;15375;48.540;9.268;2023-03-14T13:13:01;95823.94;;;10.94;72.81
4814;BME280;15375;48.540;9.268;2023-03-14T13:15:31;95815.78;;;10.75;74.64
4814;BME280;15375;48.540;9.268;2023-03-14T13:18:13;95834.50;;;10.37;70.48
4814;BME280;15375;48.540;9.268;2023-03-14T13:20:52;95836.91;;;10.17;70.39
4814;BME280;15375;48.540;9.268;2023-03-14T13:23:24;95875.47;;;10.82;70.34
4814;BME280;15375;48.540;9.268;2023-03-14T13:25:50;95796.53;;;10.61;67.84
4814;BME280;15375;48.540;9.268;2023-03-14T13:28:16;95787.72;;;11.02;64.78
4814;BME280;15375;48.540;9.268;2023-03-14T13:30:44;95811.84;;;10.76;63.95
4814;BME280;15375;48.540;9.268;2023-03-14T13:33:14;95895.28;;;10.56;61.76
4814;BME280;15375;48.540;9.268;2023-03-14T13:35:45;95923.25;;;10.07;61.39
4814;BME280;15375;48.540;9.268;2023-03-14T13:38:20;95923.59;;;9.79;63.67
4814;BME280;15375;48.540;9.268;2023-03-14T13:40:47;95920.75;;;9.60;63.51
4814;BME280;15375;48.540;9.268;2023-03-14T13:46:03;95970.25;;;9.68;65.85
4814;BME280;15375;48.540;9.268;2023-03-14T13:48:30;95983.25;;;9.64;64.32
4814;BME280;15375;48.540;9.268;2023-03-14T13:51:09;95971.00;;;9.25;67.73
4814;BME280;15375;48.540;9.268;2023-03-14T13:53:50;95990.88;;;9.35;66.05
4814;BME280;15375;48.540;9.268;2023-03-14T13:56:17;96013.91;;;9.43;64.59
4814;BME280;15375;48.540;9.268;2023-03-14T13:58:42;95983.81;;;9.25;65.32
4814;BME280;15375;48.540;9.268;2023-03-14T14:01:15;96011.66;;;9.41;66.06
4814;BME280;15375;48.540;9.268;2023-03-14T14:03:44;96026.63;;;9.46;66.61
4814;BME280;15375;48.540;9.268;2023-03-14T14:08:48;96026.22;;;9.01;63.83
4814;BME280;15375;48.540;9.268;2023-03-14T14:11:37;96056.47;;;9.03;63.38
4814;BME280;15375;48.540;9.268;2023-03-14T14:14:11;96043.31;;;9.01;63.44
4814;BME280;15375;48.540;9.268;2023-03-14T14:16:37;96075.00;;;9.29;64.16
4814;BME280;15375;48.540;9.268;2023-03-14T14:19:03;96033.94;;;9.02;59.24
4814;BME280;15375;48.540;9.268;2023-03-14T14:21:28;96037.16;;;9.22;56.87
4814;BME280;15375;48.540;9.268;2023-03-14T14:23:55;96070.03;;;9.15;58.41